Time;durP1;ratioP1;P1;durP2;ratioP2;P2;SDS_P1;SDS_P2;PMS_P1;PMS_P2;Temp;Humidity;BMP_temperature;BMP_pressure;BME280_temperature;BME280_humidity;BME280_pressure;Samples;Min_cycle;Max_cycle;Signal;HPM_P1;HPM_P2
2022/08/30 00:02:34;;;;;;;;;;;;;;;18.78;62.32;100307.97;5082932;28;20253;-81
2022/08/30 00:05:00;;;;;;;13.60;4.70;;;;;;;18.88;61.89;100304.19;5078890;28;19912;-81
2022/08/30 00:07:26;;;;;;;12.20;5.05;;;;;;;18.82;62.33;100306.25;5081032;28;20040;-81
2022/08/30 00:09:51;;;;;;;11.25;4.53;;;;;;;18.86;62.07;100304.50;5078989;28;20039;-81
2022/08/30 00:12:17;;;;;;;18.92;7.25;;;;;;;18.91;62.36;100300.81;5071392;28;20037;-82
2022/08/30 00:14:42;;;;;;;10.85;4.20;;;;;;;18.83;62.68;100296.03;5071388;28;20105;-81
2022/08/30 00:17:07;;;;;;;12.05;4.78;;;;;;;18.86;62.68;100304.50;5089902;28;20465;-81
2022/08/30 00:19:32;;;;;;;12.10;4.90;;;;;;;18.87;62.38;100299.81;5079746;28;20032;-81
2022/08/30 00:21:58;;;;;;;18.57;6.20;;;;;;;18.66;62.85;100295.50;5071561;28;20257;-80
2022/08/30 00:24:23;;;;;;;18.75;6.93;;;;;;;18.73;62.94;100300.59;5071644;28;20265;-81
2022/08/30 00:26:48;;;;;;;21.52;4.80;;;;;;;18.70;63.09;100301.25;5071207;28;20032;-80
2022/08/30 00:29:14;;;;;;;9.10;4.20;;;;;;;18.53;63.35;100299.09;5078136;28;20024;-81
2022/08/30 00:31:39;;;;;;;8.10;4.00;;;;;;;18.34;64.22;100296.41;5091667;28;20078;-81
2022/08/30 00:34:04;;;;;;;9.52;4.43;;;;;;;18.33;64.67;100289.25;5094046;28;20093;-81
2022/08/30 00:36:30;;;;;;;7.88;4.40;;;;;;;18.51;64.20;100298.59;5095136;28;20024;-81
2022/08/30 00:38:55;;;;;;;8.73;3.53;;;;;;;18.51;64.11;100302.16;5093425;28;20033;-81
2022/08/30 00:41:21;;;;;;;9.90;4.20;;;;;;;18.59;64.00;100297.84;5077706;28;20265;-80
2022/08/30 00:43:47;;;;;;;8.80;4.63;;;;;;;18.52;63.84;100295.50;5074493;28;20030;-82
2022/08/30 00:46:12;;;;;;;10.68;4.38;;;;;;;18.46;64.26;100293.97;5055927;28;20469;-80
2022/08/30 00:48:43;;;;;;;7.78;3.85;;;;;;;18.50;64.36;100303.28;5087123;28;20524;-81
2022/08/30 00:51:12;;;;;;;10.43;4.32;;;;;;;18.61;64.13;100303.09;5074502;28;20041;-81
2022/08/30 00:53:41;;;;;;;7.88;3.40;;;;;;;18.61;64.40;100303.09;5056662;28;20035;-80
2022/08/30 00:56:07;;;;;;;6.78;3.45;;;;;;;18.47;64.72;100298.34;5056311;28;20028;-81
2022/08/30 00:58:39;;;;;;;9.43;4.13;;;;;;;18.46;64.93;100296.72;5073075;28;20036;-81
2022/08/30 01:01:06;;;;;;;6.72;3.15;;;;;;;18.09;65.77;100300.13;5093138;28;20040;-81
2022/08/30 01:03:32;;;;;;;12.98;3.28;;;;;;;18.11;66.11;100288.78;5094132;28;20035;-80
2022/08/30 01:05:59;;;;;;;8.30;3.67;;;;;;;18.13;66.19;100293.97;5094522;28;20461;-81
2022/08/30 01:08:25;;;;;;;10.15;3.67;;;;;;;18.13;66.26;100303.09;5090386;28;20036;-81
2022/08/30 01:10:52;;;;;;;13.55;5.10;;;;;;;18.00;66.56;100307.44;5072333;28;20045;-81
2022/08/30 01:13:20;;;;;;;8.13;3.80;;;;;;;18.08;66.50;100308.72;5073633;28;20046;-81
2022/08/30 01:15:46;;;;;;;14.13;4.38;;;;;;;18.13;66.34;100299.50;5074469;28;20035;-81
2022/08/30 01:18:16;;;;;;;8.73;3.55;;;;;;;18.19;66.07;100303.84;5093705;28;20027;-80
2022/08/30 01:21:06;;;;;;;10.00;3.20;;;;;;;18.16;66.05;100299.75;5055585;28;20811;-81
2022/08/30 01:23:33;;;;;;;9.48;3.90;;;;;;;18.04;66.67;100304.91;5071770;28;20044;-81
2022/08/30 01:26:01;;;;;;;9.70;4.45;;;;;;;17.98;67.12;100312.44;5072615;28;20114;-81
2022/08/30 01:28:27;;;;;;;7.18;3.70;;;;;;;18.12;66.70;100311.69;5075458;28;20107;-80
2022/08/30 01:30:53;;;;;;;11.27;3.97;;;;;;;18.01;66.88;100308.25;5075801;28;20135;-79
2022/08/30 01:33:18;;;;;;;6.80;3.35;;;;;;;17.87;67.37;100297.19;5073446;28;20155;-81
2022/08/30 01:35:53;;;;;;;10.75;3.50;;;;;;;17.90;67.76;100300.16;5073785;28;20111;-80
2022/08/30 01:38:22;;;;;;;8.65;3.85;;;;;;;17.91;67.38;100315.59;5074055;28;20103;-81
2022/08/30 01:40:48;;;;;;;8.85;4.13;;;;;;;17.75;67.75;100306.75;5084439;28;20494;-81
2022/08/30 01:43:15;;;;;;;7.68;3.83;;;;;;;17.81;67.91;100316.59;5074984;28;20085;-81
2022/08/30 01:45:41;;;;;;;7.78;3.53;;;;;;;18.00;67.55;100301.91;5092533;28;20097;-81
2022/08/30 01:48:07;;;;;;;6.70;3.42;;;;;;;17.83;67.77;100308.84;5103039;28;20023;-80
2022/08/30 01:50:33;;;;;;;8.95;3.97;;;;;;;17.94;67.86;100303.16;5090899;28;20036;-81
2022/08/30 01:52:58;;;;;;;11.13;4.40;;;;;;;17.73;68.40;100307.06;5093504;28;20038;-80
2022/08/30 01:55:23;;;;;;;10.88;4.32;;;;;;;17.77;68.54;100298.19;5093304;28;20089;-81
2022/08/30 01:57:49;;;;;;;9.85;5.32;;;;;;;17.81;68.33;100308.31;5092597;28;20032;-81
2022/08/30 02:00:16;;;;;;;9.10;4.47;;;;;;;17.82;68.29;100309.94;5074746;28;20028;-81
2022/08/30 02:02:42;;;;;;;12.48;4.78;;;;;;;17.78;68.58;100308.06;5055441;28;20033;-81
2022/08/30 02:05:08;;;;;;;16.73;5.07;;;;;;;17.83;68.84;100319.88;5055011;28;20055;-79
2022/08/30 02:07:34;;;;;;;11.55;4.60;;;;;;;17.86;67.98;100315.66;5072700;28;20040;-81
2022/08/30 02:09:59;;;;;;;9.23;4.23;;;;;;;17.90;68.23;100318.66;5076426;28;20466;-81
2022/08/30 02:12:24;;;;;;;10.07;3.67;;;;;;;17.76;68.51;100324.13;5071964;28;20297;-81
2022/08/30 02:14:50;;;;;;;7.35;4.55;;;;;;;17.74;69.07;100318.88;5072594;28;20029;-81
2022/08/30 02:17:15;;;;;;;9.55;4.50;;;;;;;17.65;68.80;100318.78;5089487;28;20031;-80
2022/08/30 02:19:41;;;;;;;8.50;4.10;;;;;;;17.70;68.75;100309.59;5079445;28;20055;-80
2022/08/30 02:22:07;;;;;;;8.32;4.15;;;;;;;17.59;69.00;100312.50;5093091;28;20032;-79
2022/08/30 02:24:33;;;;;;;9.75;4.80;;;;;;;17.57;69.27;100316.69;5092606;28;20035;-80
2022/08/30 02:26:58;;;;;;;6.93;3.50;;;;;;;17.64;68.94;100305.25;5093090;28;20085;-80
2022/08/30 02:29:24;;;;;;;10.75;3.85;;;;;;;17.56;69.05;100304.84;5083150;28;20032;-80
2022/08/30 02:31:50;;;;;;;11.93;4.70;;;;;;;17.70;68.65;100304.06;5072486;28;20053;-81
2022/08/30 02:34:17;;;;;;;11.00;3.95;;;;;;;17.70;69.04;100315.09;5071455;28;20046;-80
2022/08/30 02:36:42;;;;;;;7.47;3.60;;;;;;;17.57;69.22;100314.75;5071214;28;20470;-80
2022/08/30 02:39:09;;;;;;;10.18;3.75;;;;;;;17.68;69.02;100315.41;5072405;28;20047;-80
2022/08/30 02:41:35;;;;;;;14.55;4.32;;;;;;;17.53;69.56;100310.13;5090431;28;20119;-81
2022/08/30 02:44:00;;;;;;;5.95;4.10;;;;;;;17.50;69.62;100311.53;5090228;28;20080;-80
2022/08/30 02:46:26;;;;;;;8.82;4.22;;;;;;;17.55;69.55;100305.13;5090530;28;20108;-81
2022/08/30 02:48:52;;;;;;;8.85;4.32;;;;;;;17.71;69.03;100305.72;5072467;28;20067;-81
2022/08/30 02:51:17;;;;;;;6.78;4.00;;;;;;;17.87;68.67;100313.72;5069565;28;20115;-81
2022/08/30 02:53:44;;;;;;;26.88;5.50;;;;;;;17.56;69.39;100301.25;5069747;28;20065;-81
2022/08/30 02:56:10;;;;;;;15.07;5.57;;;;;;;17.56;69.69;100298.50;5071450;28;20024;-81
2022/08/30 02:58:37;;;;;;;7.85;5.03;;;;;;;17.60;69.34;100297.59;5053371;28;20028;-81
2022/08/30 03:01:04;;;;;;;12.68;4.78;;;;;;;17.50;69.64;100297.75;5071728;28;20035;-81
2022/08/30 03:03:29;;;;;;;11.27;4.68;;;;;;;17.53;69.60;100299.94;5071465;28;20052;-80
2022/08/30 03:05:55;;;;;;;10.00;5.07;;;;;;;17.53;69.38;100305.44;5053849;28;20071;-80
2022/08/30 03:08:21;;;;;;;9.40;4.17;;;;;;;17.45;69.74;100303.38;5054473;28;20124;-79
2022/08/30 03:10:47;;;;;;;9.35;4.43;;;;;;;17.45;69.81;100298.66;5073541;28;20323;-79
2022/08/30 03:13:12;;;;;;;11.82;5.40;;;;;;;17.42;69.68;100298.44;5071673;28;20508;-80
2022/08/30 03:15:38;;;;;;;8.63;4.85;;;;;;;17.41;69.65;100299.56;5076906;28;20039;-80
2022/08/30 03:18:04;;;;;;;11.65;5.32;;;;;;;17.39;70.00;100295.16;5082729;28;20036;-80
2022/08/30 03:20:29;;;;;;;10.98;5.03;;;;;;;17.40;70.07;100290.47;5090168;28;20039;-80
2022/08/30 03:22:55;;;;;;;8.10;4.27;;;;;;;17.39;70.22;100295.16;5091787;28;20039;-81
2022/08/30 03:25:20;;;;;;;6.23;3.97;;;;;;;17.23;70.52;100302.81;5091968;28;20310;-80
2022/08/30 03:27:46;;;;;;;8.90;4.82;;;;;;;17.19;70.90;100285.25;5073935;28;20257;-80
2022/08/30 03:30:12;;;;;;;7.85;4.75;;;;;;;17.18;71.04;100288.31;5056818;28;20135;-81
2022/08/30 03:32:38;;;;;;;9.45;5.28;;;;;;;17.14;70.91;100288.91;5071847;28;20024;-81
2022/08/30 03:35:05;;;;;;;11.80;4.45;;;;;;;17.09;71.25;100293.63;5071373;28;20458;-81
2022/08/30 03:37:30;;;;;;;9.88;4.50;;;;;;;17.05;71.24;100301.66;5069850;28;20056;-80
2022/08/30 03:39:56;;;;;;;7.30;4.93;;;;;;;16.97;71.28;100296.81;5085129;28;20059;-80
2022/08/30 03:42:22;;;;;;;8.90;4.50;;;;;;;17.03;71.31;100298.38;5089936;28;20101;-80
2022/08/30 03:44:47;;;;;;;9.63;4.53;;;;;;;17.23;70.88;100293.72;5090873;28;20039;-79
2022/08/30 03:47:13;;;;;;;9.63;5.78;;;;;;;17.28;70.77;100296.44;5089359;28;20481;-80
2022/08/30 03:49:38;;;;;;;9.70;4.55;;;;;;;17.39;70.25;100299.84;5094370;28;20550;-82
2022/08/30 03:52:04;;;;;;;8.15;4.00;;;;;;;17.46;69.98;100289.28;5091537;28;20701;-81
2022/08/30 03:54:30;;;;;;;13.50;5.40;;;;;;;17.24;70.43;100303.66;5091585;28;20024;-80
2022/08/30 03:56:55;;;;;;;12.02;5.30;;;;;;;17.29;70.80;100291.75;5091209;28;20382;-80
2022/08/30 03:59:21;;;;;;;9.35;4.50;;;;;;;17.28;70.60;100301.94;5080808;28;20043;-80
2022/08/30 04:01:46;;;;;;;10.30;4.55;;;;;;;17.39;70.49;100303.41;5071005;28;20499;-81
2022/08/30 04:04:13;;;;;;;8.33;4.63;;;;;;;17.50;70.06;100295.00;5071205;28;20056;-80
2022/08/30 04:06:38;;;;;;;8.45;4.70;;;;;;;17.19;70.89;100306.47;5070058;28;20249;-81
2022/08/30 04:09:03;;;;;;;11.43;4.60;;;;;;;17.34;70.56;100300.75;5075086;28;20050;-80
2022/08/30 04:11:29;;;;;;;7.88;4.20;;;;;;;17.46;70.21;100304.97;5094895;28;20491;-81
2022/08/30 04:13:55;;;;;;;19.63;5.30;;;;;;;17.48;70.11;100306.34;5094861;28;20557;-80
2022/08/30 04:16:22;;;;;;;9.63;5.80;;;;;;;17.53;69.75;100301.88;5095168;28;20107;-80
2022/08/30 04:18:47;;;;;;;10.13;4.57;;;;;;;17.20;70.99;100297.09;5064121;28;20081;-80
2022/08/30 04:21:12;;;;;;;15.02;5.63;;;;;;;16.95;71.83;100296.28;5094986;28;20040;-80
2022/08/30 04:23:38;;;;;;;11.70;5.10;;;;;;;17.28;70.86;100304.69;5094795;28;20055;-81
2022/08/30 04:26:03;;;;;;;11.23;4.80;;;;;;;17.39;70.23;100295.16;5094817;28;20027;-81
2022/08/30 04:28:29;;;;;;;16.33;7.13;;;;;;;17.42;70.20;100298.44;5092134;28;20024;-80
2022/08/30 04:30:54;;;;;;;9.85;5.60;;;;;;;17.29;70.74;100300.81;5091733;28;20618;-80
2022/08/30 04:33:19;;;;;;;10.10;5.68;;;;;;;17.37;70.36;100297.38;5095054;28;20059;-80
2022/08/30 04:35:47;;;;;;;9.75;5.72;;;;;;;17.46;69.99;100303.06;5094654;28;20036;-81
2022/08/30 04:38:13;;;;;;;10.77;5.18;;;;;;;17.21;70.62;100304.22;5094479;28;20038;-81
2022/08/30 04:40:44;;;;;;;7.97;5.15;;;;;;;17.21;71.38;100310.56;5086275;28;20058;-80
2022/08/30 04:43:11;;;;;;;9.27;5.57;;;;;;;17.11;71.12;100311.50;5076508;28;20035;-80
2022/08/30 04:45:38;;;;;;;13.75;5.53;;;;;;;17.19;70.79;100312.00;5099734;28;20054;-79
2022/08/30 04:48:04;;;;;;;14.52;6.75;;;;;;;17.19;70.79;100307.28;5097649;28;20036;-80
2022/08/30 04:50:30;;;;;;;13.18;6.18;;;;;;;17.10;71.16;100304.34;5088176;28;20046;-81
2022/08/30 04:52:55;;;;;;;10.55;5.40;;;;;;;17.16;71.10;100313.41;5094629;28;20024;-81
2022/08/30 04:55:20;;;;;;;11.52;6.78;;;;;;;17.10;71.33;100306.28;5094506;28;20062;-79
2022/08/30 04:57:46;;;;;;;10.65;6.07;;;;;;;17.17;71.24;100308.72;5094215;28;20116;-80
2022/08/30 05:00:12;;;;;;;11.88;7.00;;;;;;;17.12;70.82;100310.41;5078577;28;20035;-80
2022/08/30 05:02:41;;;;;;;11.52;5.57;;;;;;;17.17;71.21;100319.72;5074828;28;20044;-79
2022/08/30 05:07:51;;;;;;;9.82;5.93;;;;;;;16.92;71.90;100323.28;5074211;28;20054;-80
2022/08/30 05:10:17;;;;;;;17.05;6.60;;;;;;;16.70;72.96;100326.56;5075486;28;20036;-80
2022/08/30 05:12:42;;;;;;;11.38;6.47;;;;;;;16.83;72.57;100329.75;5074362;28;20074;-79
2022/08/30 05:15:09;;;;;;;12.93;7.05;;;;;;;16.94;71.90;100333.19;5057275;28;20032;-80
2022/08/30 05:17:36;;;;;;;15.85;7.80;;;;;;;16.92;72.02;100326.03;5099263;28;20464;-79
2022/08/30 05:20:02;;;;;;;11.57;6.32;;;;;;;16.94;72.28;100333.19;5085875;28;20032;-81
2022/08/30 05:22:28;;;;;;;9.45;5.10;;;;;;;17.09;71.63;100340.44;5074281;28;20033;-79
2022/08/30 05:24:53;;;;;;;14.85;6.57;;;;;;;17.05;71.79;100345.72;5074217;28;20024;-80
2022/08/30 05:27:18;;;;;;;13.73;7.00;;;;;;;16.96;72.26;100342.00;5074205;28;20054;-81
2022/08/30 05:29:44;;;;;;;9.35;5.63;;;;;;;16.72;73.15;100340.88;5073264;28;20281;-79
2022/08/30 05:32:09;;;;;;;15.30;8.02;;;;;;;16.58;73.06;100343.50;5072006;28;20521;-79
2022/08/30 05:34:34;;;;;;;12.90;6.95;;;;;;;16.69;73.44;100346.97;5070817;28;20032;-80
2022/08/30 05:37:01;;;;;;;11.80;5.57;;;;;;;16.62;73.60;100350.06;5073312;28;20028;-79
2022/08/30 05:39:27;;;;;;;10.52;6.50;;;;;;;16.71;72.73;100341.16;5077418;28;20040;-79
2022/08/30 05:41:58;;;;;;;10.00;5.95;;;;;;;16.59;73.37;100336.91;5093483;28;20032;-79
2022/08/30 05:44:23;;;;;;;17.10;7.55;;;;;;;16.51;74.09;100346.63;5093969;28;20461;-80
2022/08/30 05:46:49;;;;;;;10.00;6.88;;;;;;;16.86;72.91;100352.00;5094029;28;20074;-79
2022/08/30 05:49:14;;;;;;;13.05;7.20;;;;;;;16.99;72.41;100357.91;5084076;28;20107;-80
2022/08/30 05:51:40;;;;;;;11.98;6.88;;;;;;;16.71;72.76;100365.94;5073263;28;20028;-80
2022/08/30 05:54:06;;;;;;;9.27;6.05;;;;;;;16.32;73.76;100352.00;5073418;28;20478;-80
2022/08/30 05:56:35;;;;;;;16.98;5.72;;;;;;;16.56;73.55;100348.47;5073263;28;20032;-80
2022/08/30 05:59:03;;;;;;;11.23;6.68;;;;;;;16.67;73.03;100354.69;5074327;28;20037;-79
2022/08/30 06:01:31;;;;;;;11.40;6.15;;;;;;;16.55;73.52;100363.34;5093563;28;20032;-80
2022/08/30 06:04:01;;;;;;;13.15;7.93;;;;;;;16.27;73.94;100360.31;5093325;28;20119;-79
2022/08/30 06:06:29;;;;;;;12.60;6.28;;;;;;;16.13;74.75;100360.97;5093749;28;20024;-80
2022/08/30 06:08:54;;;;;;;15.90;6.40;;;;;;;16.20;74.82;100372.47;5086508;28;20810;-80
2022/08/30 06:11:21;;;;;;;15.70;6.35;;;;;;;16.19;75.29;100368.06;5073273;28;20033;-80
2022/08/30 06:13:48;;;;;;;11.85;6.28;;;;;;;16.14;75.13;100373.63;5073007;28;20072;-80
2022/08/30 06:16:15;;;;;;;16.67;6.40;;;;;;;16.14;75.57;100368.13;5082994;28;20024;-80
2022/08/30 06:18:41;;;;;;;9.60;5.45;;;;;;;16.34;74.80;100360.78;5100015;28;20488;-80
2022/08/30 06:21:07;;;;;;;10.13;6.53;;;;;;;16.27;74.98;100360.31;5072403;28;20039;-80
2022/08/30 06:23:32;;;;;;;14.48;6.25;;;;;;;16.45;74.92;100356.81;5072869;28;20111;-79
2022/08/30 06:26:06;;;;;;;13.35;6.90;;;;;;;16.43;74.33;100364.53;5072583;28;20581;-80
2022/08/30 06:28:31;;;;;;;15.38;6.13;;;;;;;16.61;73.74;100356.69;5073649;28;20035;-81
2022/08/30 06:30:57;;;;;;;9.77;5.97;;;;;;;16.40;74.72;100361.56;5072806;28;20048;-80
2022/08/30 06:33:22;;;;;;;16.52;7.18;;;;;;;16.39;75.17;100362.69;5072018;28;20108;-81
2022/08/30 06:35:47;;;;;;;10.32;5.45;;;;;;;16.62;74.33;100366.56;5072015;28;20020;-81
2022/08/30 06:38:13;;;;;;;12.90;6.30;;;;;;;16.67;74.39;100369.28;5082650;28;20020;-82
2022/08/30 06:40:38;;;;;;;12.32;6.38;;;;;;;16.69;73.91;100367.06;5077162;28;20291;-81
2022/08/30 06:43:04;;;;;;;10.20;6.25;;;;;;;16.77;73.98;100371.13;5087177;28;20107;-80
2022/08/30 06:45:29;;;;;;;9.93;5.53;;;;;;;16.92;73.29;100369.31;5079039;28;20404;-81
2022/08/30 06:47:56;;;;;;;11.63;6.85;;;;;;;16.95;73.13;100368.69;5078937;28;20253;-81
2022/08/30 06:50:24;;;;;;;9.73;4.68;;;;;;;17.14;72.93;100360.53;5083320;28;20051;-81
2022/08/30 06:52:50;;;;;;;10.63;6.32;;;;;;;17.03;72.55;100356.22;5078525;28;20059;-81
2022/08/30 06:55:16;;;;;;;14.75;6.18;;;;;;;17.27;72.55;100361.72;5070625;28;20453;-81
2022/08/30 06:57:42;;;;;;;9.20;5.82;;;;;;;17.43;71.79;100355.19;5054282;28;20059;-82
2022/08/30 07:00:11;;;;;;;10.50;5.82;;;;;;;17.12;72.84;100361.91;5073829;28;20036;-81
2022/08/30 07:02:36;;;;;;;11.35;6.15;;;;;;;17.19;72.90;100358.81;5071864;28;20020;-79
2022/08/30 07:05:03;;;;;;;11.60;6.38;;;;;;;17.25;72.80;100354.88;5072171;28;20040;-81
2022/08/30 07:07:28;;;;;;;13.65;6.60;;;;;;;17.22;72.86;100364.56;5073966;28;20040;-81
2022/08/30 07:09:53;;;;;;;12.75;6.65;;;;;;;17.31;72.78;100361.94;5088838;28;20127;-80
2022/08/30 07:12:19;;;;;;;10.90;6.28;;;;;;;17.51;71.88;100360.06;5082164;28;20082;-81
2022/08/30 07:14:45;;;;;;;15.30;6.03;;;;;;;17.66;71.69;100355.41;5070845;28;20025;-80
2022/08/30 07:19:54;;;;;;;16.02;7.63;;;;;;;17.95;71.24;100366.28;5078862;28;20043;-81
2022/08/30 07:22:19;;;;;;;12.75;5.80;;;;;;;17.68;71.92;100355.94;5071632;28;20115;-81
2022/08/30 07:24:46;;;;;;;10.73;6.13;;;;;;;17.97;71.16;100365.97;5070636;28;20714;-81
2022/08/30 07:27:11;;;;;;;12.50;6.07;;;;;;;17.89;71.63;100361.13;5071320;28;20029;-81
2022/08/30 07:29:36;;;;;;;11.40;6.28;;;;;;;17.94;71.11;100363.84;5072029;28;20139;-80
2022/08/30 07:32:02;;;;;;;14.02;6.93;;;;;;;17.89;71.71;100361.97;5070996;28;20032;-80
2022/08/30 07:34:28;;;;;;;11.98;7.80;;;;;;;17.99;71.17;100363.75;5071114;28;20037;-81
2022/08/30 07:36:53;;;;;;;11.87;6.23;;;;;;;18.08;70.98;100364.69;5071154;28;20102;-80
2022/08/30 07:39:18;;;;;;;11.88;5.10;;;;;;;18.34;69.73;100359.88;5074727;28;20272;-79
2022/08/30 07:41:44;;;;;;;16.13;6.57;;;;;;;18.30;70.38;100363.25;5091143;28;20044;-78
2022/08/30 07:44:10;;;;;;;8.57;4.82;;;;;;;18.36;70.18;100365.91;5094564;28;20417;-79
2022/08/30 07:46:39;;;;;;;15.55;5.85;;;;;;;18.51;69.74;100362.88;5108392;28;20138;-79
2022/08/30 07:49:05;;;;;;;9.27;5.32;;;;;;;18.45;69.77;100364.09;5100152;28;20039;-85
2022/08/30 07:51:31;;;;;;;8.52;4.65;;;;;;;18.36;69.64;100364.00;5074827;28;20470;-85
2022/08/30 07:53:57;;;;;;;9.73;5.40;;;;;;;18.40;69.40;100365.03;5075537;28;20032;-82
2022/08/30 07:56:23;;;;;;;11.18;4.72;;;;;;;18.41;69.69;100365.81;5074608;28;20435;-82
2022/08/30 07:58:49;;;;;;;9.90;4.75;;;;;;;18.36;69.56;100360.41;5076431;28;20392;-81
2022/08/30 08:01:16;;;;;;;12.82;4.28;;;;;;;18.47;69.17;100372.88;5073977;28;20040;-80
2022/08/30 08:03:42;;;;;;;10.43;4.93;;;;;;;18.70;68.53;100367.50;5073613;28;20457;-78
2022/08/30 08:06:09;;;;;;;7.20;4.30;;;;;;;18.63;69.49;100369.88;5074106;28;20097;-79
2022/08/30 08:08:37;;;;;;;8.45;4.88;;;;;;;18.76;68.83;100374.56;5072510;28;20381;-79
2022/08/30 08:11:16;;;;;;;11.07;5.28;;;;;;;18.68;68.84;100375.28;5092908;28;20122;-79
2022/08/30 08:13:44;;;;;;;14.15;6.25;;;;;;;18.88;68.53;100381.53;5093606;28;20036;-79
2022/08/30 08:16:09;;;;;;;9.35;4.68;;;;;;;18.92;68.30;100377.03;5094115;28;20035;-79
2022/08/30 08:18:35;;;;;;;7.30;4.10;;;;;;;18.66;68.77;100369.25;5082233;28;20611;-79
2022/08/30 08:21:00;;;;;;;8.30;4.10;;;;;;;18.80;68.67;100372.00;5073220;28;20374;-79
2022/08/30 08:23:27;;;;;;;7.20;3.97;;;;;;;18.87;69.08;100377.13;5073247;28;20125;-78
2022/08/30 08:25:52;;;;;;;8.15;4.50;;;;;;;19.08;68.89;100376.75;5074225;28;20029;-79
2022/08/30 08:28:18;;;;;;;8.60;4.32;;;;;;;19.22;67.18;100377.56;5073696;28;20496;-79
2022/08/30 08:30:43;;;;;;;10.55;4.80;;;;;;;19.04;67.35;100373.75;5076654;28;20084;-79
2022/08/30 08:33:09;;;;;;;9.10;4.67;;;;;;;19.08;67.44;100376.75;5092535;28;20451;-79
2022/08/30 08:35:34;;;;;;;10.38;5.57;;;;;;;19.13;67.31;100368.31;5093592;28;20700;-79
2022/08/30 08:38:00;;;;;;;7.38;4.63;;;;;;;19.21;67.72;100373.16;5075140;28;20052;-78
2022/08/30 08:40:26;;;;;;;8.48;4.63;;;;;;;19.41;66.96;100375.78;5063774;28;20029;-79
2022/08/30 08:43:03;;;;;;;10.52;5.38;;;;;;;19.42;66.53;100383.78;5072854;28;20035;-79
2022/08/30 08:45:54;;;;;;;10.35;4.75;;;;;;;19.44;66.20;100373.25;5076853;28;20067;-78
2022/08/30 08:48:29;;;;;;;9.70;4.75;;;;;;;19.41;66.17;100373.84;5090926;28;20095;-79
2022/08/30 08:54:07;;;;;;;9.23;4.80;;;;;;;19.65;66.19;100371.97;5009858;28;20057;-78
2022/08/30 08:56:33;;;;;;;9.60;4.53;;;;;;;19.62;65.85;100367.88;5010226;28;20033;-79
2022/08/30 08:58:58;;;;;;;8.68;4.78;;;;;;;19.54;65.61;100365.84;5043781;28;20060;-78
2022/08/30 09:01:27;;;;;;;9.65;4.53;;;;;;;19.70;65.55;100369.88;5062069;28;20641;-79
2022/08/30 09:03:53;;;;;;;13.52;5.35;;;;;;;19.84;64.86;100377.31;5072519;28;20029;-82
2022/08/30 09:06:41;;;;;;;20.15;4.45;;;;;;;19.79;65.29;100377.44;5075540;28;20024;-81
2022/08/30 09:09:07;;;;;;;9.43;4.07;;;;;;;19.83;65.52;100376.47;5074587;28;20417;-81
2022/08/30 09:11:34;;;;;;;13.45;5.20;;;;;;;19.94;64.92;100367.94;5073050;28;20032;-81
2022/08/30 09:14:00;;;;;;;8.57;3.40;;;;;;;20.10;64.82;100371.19;5078099;28;20040;-81
2022/08/30 09:16:46;;;;;;;7.63;3.97;;;;;;;20.17;64.24;100371.56;5080044;28;20074;-82
2022/08/30 09:19:27;;;;;;;5.80;3.63;;;;;;;20.32;64.00;100383.38;5079541;28;20107;-82
2022/08/30 09:21:58;;;;;;;6.47;3.75;;;;;;;20.57;63.50;100378.31;5083124;28;20081;-82
2022/08/30 09:24:23;;;;;;;6.43;3.00;;;;;;;20.58;63.32;100384.66;5075007;28;20038;-83
2022/08/30 09:26:49;;;;;;;19.95;4.15;;;;;;;20.56;63.20;100387.75;5083182;28;20036;-82
2022/08/30 09:29:19;;;;;;;6.03;3.55;;;;;;;20.62;62.56;100378.19;5081041;28;20135;-83
2022/08/30 09:31:49;;;;;;;8.57;4.00;;;;;;;20.64;62.53;100381.41;5083257;28;20052;-82
2022/08/30 09:34:18;;;;;;;7.25;3.65;;;;;;;20.75;62.08;100381.97;5081911;28;20029;-82
2022/08/30 09:36:54;;;;;;;8.40;3.35;;;;;;;20.64;62.74;100383.38;5079658;28;20042;-83
2022/08/30 09:39:28;;;;;;;8.65;3.88;;;;;;;20.55;63.00;100385.28;5078625;28;20024;-81
2022/08/30 09:41:54;;;;;;;;;;;;;;;20.34;63.17;100378.31;5080254;28;20101;-82
2022/08/30 09:44:29;;;;;;;23.45;5.47;;;;;;;20.45;63.07;100380.84;5079703;28;19908;-83
2022/08/30 09:46:57;;;;;;;8.20;4.35;;;;;;;20.67;63.95;100379.16;5102297;28;20020;-84
2022/08/30 09:49:29;;;;;;;8.68;4.63;;;;;;;20.69;62.62;100365.78;5078020;28;20035;-83
2022/08/30 09:52:33;;;;;;;16.60;4.40;;;;;;;20.73;62.24;100375.09;5092782;28;20032;-83
2022/08/30 09:55:17;;;;;;;10.52;4.25;;;;;;;20.80;62.25;100363.56;5082839;28;20544;-84
2022/08/30 09:58:16;;;;;;;7.38;3.60;;;;;;;20.60;62.44;100368.53;5080384;28;20055;-83
2022/08/30 10:00:52;;;;;;;9.80;4.80;;;;;;;20.82;62.21;100362.13;5084074;28;20121;-84
2022/08/30 10:03:34;;;;;;;11.23;3.95;;;;;;;20.81;61.68;100354.13;5091865;28;20495;-83
2022/08/30 10:06:04;;;;;;;8.90;4.05;;;;;;;20.94;61.52;100357.91;5078088;28;20085;-84
2022/08/30 10:08:51;;;;;;;8.45;4.22;;;;;;;20.74;60.92;100349.88;5057673;28;20154;-88
2022/08/30 10:11:30;;;;;;;8.63;4.25;;;;;;;20.87;60.95;100358.38;5083703;28;20020;-83
2022/08/30 10:14:10;;;;;;;8.32;4.05;;;;;;;20.98;61.28;100356.16;5077970;28;20037;-82
2022/08/30 10:16:57;;;;;;;8.10;4.38;;;;;;;21.18;60.86;100354.75;5074556;28;20470;-84
2022/08/30 10:19:42;;;;;;;11.55;3.78;;;;;;;21.05;60.67;100353.72;5080030;28;20032;-83
2022/08/30 10:22:13;;;;;;;7.53;3.38;;;;;;;21.15;60.96;100358.19;5092650;28;20056;-83
2022/08/30 10:24:46;;;;;;;9.63;4.13;;;;;;;21.32;59.78;100345.47;5085932;28;20020;-83
2022/08/30 10:27:30;;;;;;;6.75;3.40;;;;;;;21.49;59.63;100343.84;5086024;28;20099;-83
2022/08/30 10:30:06;;;;;;;9.18;3.70;;;;;;;21.60;59.98;100349.91;5082147;28;20044;-82
2022/08/30 10:32:38;;;;;;;7.18;3.45;;;;;;;21.37;59.41;100347.28;5065115;28;20474;-83
2022/08/30 10:35:10;;;;;;;6.47;3.28;;;;;;;21.64;59.05;100342.56;5081430;28;20020;-83
2022/08/30 10:37:45;;;;;;;6.15;3.90;;;;;;;21.76;59.07;100337.19;5080605;28;20107;-83
2022/08/30 10:43:15;;;;;;;9.23;3.28;;;;;;;21.96;58.58;100343.22;5079598;28;20158;-82
2022/08/30 10:45:45;;;;;;;5.72;3.05;;;;;;;21.95;58.10;100336.03;5083766;28;20397;-83
2022/08/30 10:48:24;;;;;;;9.25;4.68;;;;;;;21.94;57.45;100345.50;5084763;28;20016;-83
2022/08/30 10:50:53;;;;;;;7.47;3.38;;;;;;;22.13;57.87;100349.91;5081451;28;20050;-82
2022/08/30 10:53:28;;;;;;;6.68;3.53;;;;;;;22.12;57.45;100348.25;5079186;28;20032;-82
2022/08/30 10:56:02;;;;;;;6.88;3.03;;;;;;;22.10;56.98;100342.22;5079650;28;20038;-82
2022/08/30 10:58:30;;;;;;;7.32;3.95;;;;;;;22.16;57.51;100332.56;5079899;28;20083;-85
2022/08/30 11:01:22;;;;;;;12.00;3.83;;;;;;;22.28;56.45;100334.66;5078143;28;20119;-84
2022/08/30 11:04:01;;;;;;;9.48;3.65;;;;;;;22.33;55.58;100336.44;5073049;28;20033;-84
2022/08/30 11:06:39;;;;;;;6.40;3.45;;;;;;;22.27;55.27;100338.59;5072787;28;20103;-84
2022/08/30 11:09:30;;;;;;;14.88;3.35;;;;;;;22.24;55.96;100340.06;5082827;28;20115;-84
2022/08/30 11:12:20;;;;;;;5.72;2.50;;;;;;;22.37;55.92;100331.88;5083286;28;20050;-85
2022/08/30 11:14:46;;;;;;;8.13;3.10;;;;;;;22.49;55.73;100336.72;5062450;28;20030;-85
2022/08/30 11:18:13;;;;;;;6.13;2.08;;;;;;;22.60;55.16;100331.59;5081328;28;20092;-84
2022/08/30 11:20:49;;;;;;;7.85;3.95;;;;;;;22.49;54.16;100326.44;4999652;28;20049;-83
2022/08/30 11:23:18;;;;;;;10.82;3.08;;;;;;;22.40;54.49;100336.75;5044168;28;20409;-81
2022/08/30 11:25:48;;;;;;;5.90;2.92;;;;;;;22.30;54.48;100331.53;5069981;28;20059;-82
2022/08/30 11:28:33;;;;;;;31.33;4.50;;;;;;;22.25;54.61;100338.91;5069267;28;20043;-82
2022/08/30 11:31:22;;;;;;;7.18;3.05;;;;;;;22.49;54.51;100322.84;5081348;28;20044;-83
2022/08/30 11:33:51;;;;;;;10.70;3.03;;;;;;;22.46;54.25;100329.88;5068603;28;20048;-82
2022/08/30 11:36:29;;;;;;;4.28;2.20;;;;;;;22.51;54.37;100328.88;5087849;28;20278;-83
2022/08/30 11:38:54;;;;;;;4.78;2.80;;;;;;;22.44;54.25;100334.13;5082885;28;20085;-83
2022/08/30 11:41:30;;;;;;;5.87;2.73;;;;;;;22.65;53.85;100325.91;5087226;28;20404;-82